Main page
METAR-TAF:

METAR-TAF

Airports :

Beslan Airport

Vladikavkaz, Russia

latitude: 43-12-18N, longitude: 044-36-24E, elevation: 510 m

Current weather observation

The report was made 31 minutes ago, at 10:30 UTC
Wind 8 kt from the East/Northeast, varying between Northwest and East/Southeast
Temperature 15°C
Humidity 39%
Pressure 1020 hPa
Visibility 10 km or more

METAR: URMO 221030Z 06004MPS 320V110 9999 NSC 15/01 Q1020 R09/010070 NOSIG RMK QFE721/0962

Time: 14:01 (11:01 UTC)

Forecast

The report was made 3 hours and 1 minutes ago, at 08:00 UTC
Forecast valid from 22 at 09 UTC to 22 at 18 UTC
Wind 6 kt from the Northeast with gusts up to 16 kt
Visibility 10 km or more
Scattered clouds at a height of 3000 ft
Temporary
from 22 at 09 UTC to 22 at 12 UTC
Wind 10 kt from the West/Northwest with gusts up to 19 kt

TAF: URMO 220800Z 2209/2218 04003G08MPS 9999 SCT030 TEMPO 2209/2212 30005G10MPS

Weather observations and forecasts of more than 4000 airports (METAR and TAF reports).

The available stations are represented by yellow and red dots on the map.

Hover mouse over dot to see the name of the station.

Then click to see weather observations and forecasts.

To change the map : click on the green buttons with a black cross to zoom in, on the green button with a dash to zoom out, or on the green arrows for adjacent maps.


METAR-TAF: